FIMP/MRU METAR and TAF weather

Enter ICAO airport designator
Station Type Date Time Source
FIMP METAR 2018/10/16 15:00 UTC NOAA

FIMP 161500Z 08011KT 9999 SCT016 24/18 Q1019


Station Type Date Time Source
FIMP Decoded METAR 2018/10/16 15:00 UTC NOAA

Plaisance Mauritius , Mauritius (FIMP) 20-26S 057-40E 57M
Oct 16, 2018 - 11:00 AM EDT / 2018.10.16 1500 UTC
Wind: from the E (080 degrees) at 13 MPH (11 KT):0
Visibility: greater than 7 mile(s):0
Sky conditions: partly cloudy
Temperature: 75 F (24 C)
Dew Point: 64 F (18 C)
Relative Humidity: 69%
Pressure (altimeter): 30.09 in. Hg (1019 hPa)
ob: FIMP 161500Z 08011KT 9999 SCT016 24/18 Q1019
cycle: 15

Station Type Date Time Source
FIMP TAF 2018/10/16 12:48 UTC NOAA

TAF TAF COR FIMP 161130Z 1612/1718 09012KT 9999 SCT017 PROB30
TEMPO 1706/1718 7000 -SHRA FEW012 BKN016 BKN050


Example: see airport list